createdAt,value
2023-07-18T00:00:11.597Z,101063.78
2023-07-18T00:01:34.041Z,101058.72
2023-07-18T00:02:57.141Z,101062.84
2023-07-18T00:04:19.188Z,101059.31
2023-07-18T00:05:42.800Z,101060.66
2023-07-18T00:07:07.310Z,101059.63
2023-07-18T00:08:30.207Z,101057.25
2023-07-18T00:09:52.143Z,101062.13
2023-07-18T00:11:15.214Z,101066.38
2023-07-18T00:12:37.529Z,101060.41
2023-07-18T00:14:00.897Z,101054.56
2023-07-18T00:15:23.314Z,101061.38
2023-07-18T00:16:46.279Z,101060.19
2023-07-18T00:18:08.556Z,101054.44
2023-07-18T00:19:31.620Z,101051.94
2023-07-18T00:20:53.629Z,101069.47
2023-07-18T00:22:18.263Z,101058.06
2023-07-18T00:23:40.265Z,101048.31
2023-07-18T00:25:03.242Z,101055.44
2023-07-18T00:26:25.436Z,101057.38
2023-07-18T00:27:51.060Z,101048.31
2023-07-18T00:29:13.141Z,101050.66
2023-07-18T00:30:36.091Z,101047.09
2023-07-18T00:31:58.442Z,101041.78
2023-07-18T00:33:21.444Z,101035.78
2023-07-18T00:34:45.718Z,101047.88
2023-07-18T00:36:08.780Z,101050.25
2023-07-18T00:37:32.570Z,101048.59
2023-07-18T00:38:55.470Z,101055.97
2023-07-18T00:40:17.496Z,101051.34
2023-07-18T00:41:41.050Z,101050.59
2023-07-18T00:43:03.072Z,101045.13
2023-07-18T00:44:26.351Z,101049.75
2023-07-18T00:45:50.483Z,101050.03
2023-07-18T00:47:13.552Z,101052.22
2023-07-18T00:48:35.766Z,101048.13
2023-07-18T00:49:58.721Z,101051.16
2023-07-18T00:51:21.211Z,101048.22
2023-07-18T00:52:52.587Z,101046.66
2023-07-18T00:54:15.069Z,101048.72
2023-07-18T00:55:38.681Z,101047.00
2023-07-18T00:57:01.163Z,101044.44
2023-07-18T00:58:25.614Z,101036.47
2023-07-18T00:59:48.315Z,101039.13
2023-07-18T01:01:11.367Z,101043.59
2023-07-18T01:02:33.634Z,101045.00
2023-07-18T01:03:56.624Z,101051.53
2023-07-18T01:05:20.228Z,101054.84
2023-07-18T01:06:43.648Z,101054.78
2023-07-18T01:08:07.089Z,101056.81
2023-07-18T01:09:30.288Z,101053.94
2023-07-18T01:10:52.873Z,101061.50
2023-07-18T01:12:16.052Z,101057.53
2023-07-18T01:13:38.000Z,101060.34
2023-07-18T01:15:00.975Z,101053.06
2023-07-18T01:16:23.040Z,101058.81
2023-07-18T01:17:47.333Z,101047.97
2023-07-18T01:19:09.398Z,101052.44
2023-07-18T01:20:34.268Z,101050.72
2023-07-18T01:21:57.628Z,101047.25
2023-07-18T01:23:22.392Z,101047.16
2023-07-18T01:24:44.843Z,101047.16
2023-07-18T01:26:07.718Z,101052.13
2023-07-18T01:27:31.241Z,101047.41
2023-07-18T01:28:54.642Z,101050.66
2023-07-18T01:30:18.456Z,101052.94
2023-07-18T01:31:41.453Z,101047.88
2023-07-18T01:33:04.250Z,101041.91
2023-07-18T01:34:27.423Z,101043.88
2023-07-18T01:35:49.393Z,101047.25
2023-07-18T01:37:16.311Z,101045.84
2023-07-18T01:38:38.331Z,101045.22
2023-07-18T01:40:01.667Z,101049.94
2023-07-18T01:41:23.689Z,101045.97
2023-07-18T01:42:46.592Z,101041.78
2023-07-18T01:44:10.312Z,101048.13
2023-07-18T01:45:32.342Z,101054.22
2023-07-18T01:46:55.289Z,101055.91
2023-07-18T01:48:17.778Z,101054.75
2023-07-18T01:49:40.761Z,101045.06
2023-07-18T01:51:04.525Z,101051.31
2023-07-18T01:52:28.328Z,101055.94
2023-07-18T01:53:51.276Z,101048.50
2023-07-18T01:55:13.228Z,101050.25
2023-07-18T01:56:36.552Z,101051.41
2023-07-18T01:57:58.700Z,101043.34
2023-07-18T01:59:23.326Z,101042.22
2023-07-18T02:00:46.259Z,101038.16
2023-07-18T02:02:08.284Z,101043.84
2023-07-18T02:03:31.379Z,101038.03
2023-07-18T02:04:53.398Z,101035.03
2023-07-18T02:06:16.304Z,101032.22
2023-07-18T02:07:39.630Z,101036.81
2023-07-18T02:09:02.532Z,101032.47
2023-07-18T02:10:26.101Z,101035.47
2023-07-18T02:11:49.174Z,101037.72
2023-07-18T02:13:11.244Z,101038.31
2023-07-18T02:14:34.169Z,101040.19
2023-07-18T02:15:57.144Z,101047.44
2023-07-18T02:17:19.244Z,101051.31
2023-07-18T02:18:42.870Z,101050.13
2023-07-18T02:20:07.667Z,101052.22
2023-07-18T02:21:30.782Z,101059.63
2023-07-18T02:22:54.100Z,101063.13
2023-07-18T02:24:17.034Z,101060.13
2023-07-18T02:25:39.246Z,101055.13
2023-07-18T02:27:02.645Z,101049.41
2023-07-18T02:28:24.810Z,101044.56
2023-07-18T02:29:48.452Z,101042.72
2023-07-18T02:31:11.483Z,101043.50
2023-07-18T02:32:34.060Z,101043.03
2023-07-18T02:33:59.052Z,101049.50
2023-07-18T02:35:23.156Z,101042.31
2023-07-18T02:36:45.158Z,101045.34
2023-07-18T02:38:09.665Z,101050.34
2023-07-18T02:39:33.735Z,101050.31
2023-07-18T02:40:56.775Z,101045.13
2023-07-18T02:42:18.824Z,101042.72
2023-07-18T02:43:41.773Z,101045.47
2023-07-18T02:45:04.810Z,101046.22
2023-07-18T02:46:27.891Z,101040.78
2023-07-18T02:47:49.955Z,101037.09
2023-07-18T02:49:12.982Z,101036.22
2023-07-18T02:50:35.609Z,101032.03
2023-07-18T02:51:58.550Z,101037.00
2023-07-18T02:53:21.844Z,101034.34
2023-07-18T02:54:44.754Z,101043.72
2023-07-18T02:56:06.939Z,101042.44
2023-07-18T02:57:29.952Z,101039.84
2023-07-18T02:58:51.977Z,101047.97
2023-07-18T03:00:21.444Z,101043.78
2023-07-18T03:01:45.614Z,101045.50
2023-07-18T03:03:08.861Z,101054.78
2023-07-18T03:04:31.976Z,101045.06
2023-07-18T03:05:55.640Z,101048.25
2023-07-18T03:07:18.956Z,101047.84
2023-07-18T03:08:44.304Z,101053.53
2023-07-18T03:10:06.886Z,101050.19
2023-07-18T03:11:29.890Z,101049.38
2023-07-18T03:12:52.564Z,101054.00
2023-07-18T03:14:15.753Z,101053.59
2023-07-18T03:15:37.733Z,101053.88
2023-07-18T03:17:01.101Z,101048.16
2023-07-18T03:18:23.269Z,101050.09
2023-07-18T03:19:46.276Z,101053.66
2023-07-18T03:21:08.534Z,101056.03
2023-07-18T03:22:31.555Z,101057.13
2023-07-18T03:23:54.995Z,101057.34
2023-07-18T03:25:20.941Z,101056.84
2023-07-18T03:26:43.111Z,101050.84
2023-07-18T03:28:06.072Z,101045.53
2023-07-18T03:29:28.050Z,101061.72
2023-07-18T03:30:51.270Z,101048.13
2023-07-18T03:32:13.462Z,101057.34
2023-07-18T03:33:36.479Z,101064.97
2023-07-18T03:34:58.442Z,101058.09
2023-07-18T03:36:21.612Z,101052.44
2023-07-18T03:37:43.932Z,101051.78
2023-07-18T03:39:08.278Z,101062.06
2023-07-18T03:40:32.958Z,101056.16
2023-07-18T03:41:56.053Z,101062.59
2023-07-18T03:43:18.026Z,101061.66
2023-07-18T03:44:41.197Z,101061.25
2023-07-18T03:46:03.244Z,101058.22
2023-07-18T03:47:26.253Z,101059.94
2023-07-18T03:48:49.294Z,101058.69
2023-07-18T03:50:16.136Z,101060.84
2023-07-18T03:51:39.815Z,101061.56
2023-07-18T03:53:02.751Z,101062.13
2023-07-18T03:54:26.843Z,101062.53
2023-07-18T03:55:50.369Z,101062.25
2023-07-18T03:57:12.365Z,101059.78
2023-07-18T03:58:35.690Z,101056.69
2023-07-18T03:59:57.768Z,101054.75
2023-07-18T04:01:21.013Z,101041.16
2023-07-18T04:02:46.382Z,101044.47
2023-07-18T04:04:10.649Z,101050.56
2023-07-18T04:05:32.742Z,101042.94
2023-07-18T04:06:55.675Z,101054.56
2023-07-18T04:08:17.708Z,101050.97
2023-07-18T04:09:42.086Z,101060.47
2023-07-18T04:11:04.066Z,101057.44
2023-07-18T04:12:27.009Z,101050.13
2023-07-18T04:13:49.994Z,101059.41
2023-07-18T04:15:13.436Z,101055.03
2023-07-18T04:16:36.485Z,101056.47
2023-07-18T04:17:58.493Z,101059.06
2023-07-18T04:19:21.684Z,101054.81
2023-07-18T04:20:43.648Z,101059.31
2023-07-18T04:22:06.723Z,101053.00
2023-07-18T04:23:29.016Z,101065.28
2023-07-18T04:24:56.301Z,101065.44
2023-07-18T04:26:19.261Z,101057.75
2023-07-18T04:27:41.288Z,101066.91
2023-07-18T04:29:06.169Z,101058.84
2023-07-18T04:30:28.205Z,101059.47
2023-07-18T04:31:51.280Z,101061.00
2023-07-18T04:33:13.954Z,101055.31
2023-07-18T04:34:37.640Z,101058.97
2023-07-18T04:35:59.644Z,101064.03
2023-07-18T04:37:22.749Z,101060.44
2023-07-18T04:38:45.204Z,101073.38
2023-07-18T04:40:11.250Z,101065.28
2023-07-18T04:41:41.646Z,101066.25
2023-07-18T04:43:09.041Z,101061.88
2023-07-18T04:44:31.449Z,101062.91
2023-07-18T04:45:54.537Z,101062.41
2023-07-18T04:47:16.530Z,101056.72
2023-07-18T04:48:40.206Z,101057.09
2023-07-18T04:50:02.229Z,101051.91
2023-07-18T04:51:25.677Z,101053.34
2023-07-18T04:52:47.617Z,101046.66
2023-07-18T04:54:10.554Z,101050.41
2023-07-18T04:55:35.651Z,101048.72
2023-07-18T04:56:58.665Z,101049.81
2023-07-18T04:58:21.269Z,101052.50
2023-07-18T04:59:44.268Z,101062.84
2023-07-18T05:01:06.230Z,101052.63
2023-07-18T05:02:29.317Z,101057.31
2023-07-18T05:03:58.012Z,101058.53
2023-07-18T05:05:21.599Z,101057.19
2023-07-18T05:06:43.548Z,101049.94
2023-07-18T05:08:06.813Z,101050.00
2023-07-18T05:09:29.289Z,101055.22
2023-07-18T05:10:53.679Z,101059.66
2023-07-18T05:12:15.690Z,101057.59
2023-07-18T05:13:38.708Z,101054.50
2023-07-18T05:15:01.677Z,101052.53
2023-07-18T05:16:24.856Z,101048.47
2023-07-18T05:17:47.659Z,101055.50
2023-07-18T05:19:10.723Z,101061.88
2023-07-18T05:20:33.198Z,101061.63
2023-07-18T05:21:56.318Z,101057.50
2023-07-18T05:23:18.300Z,101054.84
2023-07-18T05:24:41.262Z,101058.19
2023-07-18T05:26:05.163Z,101053.69
2023-07-18T05:27:28.117Z,101054.22
2023-07-18T05:28:50.113Z,101053.69
2023-07-18T05:30:14.355Z,101051.41
2023-07-18T05:31:36.356Z,101048.13
2023-07-18T05:32:59.400Z,101051.47
2023-07-18T05:34:23.585Z,101055.22
2023-07-18T05:35:46.577Z,101042.50
2023-07-18T05:37:08.601Z,101056.25
2023-07-18T05:38:31.592Z,101051.06
2023-07-18T05:39:53.594Z,101062.94
2023-07-18T05:41:18.204Z,101060.69
2023-07-18T05:42:41.509Z,101065.72
2023-07-18T05:44:04.617Z,101065.34
2023-07-18T05:45:26.625Z,101060.22
2023-07-18T05:46:49.660Z,101063.44
2023-07-18T05:48:12.652Z,101064.47
2023-07-18T05:49:35.102Z,101063.00
2023-07-18T05:50:58.160Z,101064.34
2023-07-18T05:52:20.397Z,101057.25
2023-07-18T05:53:43.342Z,101067.34
2023-07-18T05:55:06.587Z,101059.28
2023-07-18T05:56:30.972Z,101059.19
2023-07-18T05:57:52.936Z,101051.31
2023-07-18T05:59:16.019Z,101052.31
2023-07-18T06:00:38.197Z,101060.94
2023-07-18T06:02:04.004Z,101057.28
2023-07-18T06:03:26.251Z,101056.25
2023-07-18T06:04:49.694Z,101056.56
2023-07-18T06:06:12.370Z,101055.78
2023-07-18T06:07:35.574Z,101064.41
2023-07-18T06:08:57.920Z,101065.88
2023-07-18T06:10:21.100Z,101063.59
2023-07-18T06:11:46.798Z,101074.31
2023-07-18T06:13:10.030Z,101066.69
2023-07-18T06:14:32.153Z,101059.75
2023-07-18T06:15:55.141Z,101057.03
2023-07-18T06:17:17.618Z,101056.38
2023-07-18T06:18:42.735Z,101059.84
2023-07-18T06:20:10.312Z,101057.25
2023-07-18T06:21:32.430Z,101053.50
2023-07-18T06:22:56.170Z,101054.50
2023-07-18T06:24:19.788Z,101058.56
2023-07-18T06:25:43.311Z,101047.53
2023-07-18T06:27:07.087Z,101050.94
2023-07-18T06:28:30.106Z,101049.34
2023-07-18T06:29:52.110Z,101046.91
2023-07-18T06:31:15.604Z,101054.41
2023-07-18T06:32:37.729Z,101060.91
2023-07-18T06:34:00.918Z,101049.38
2023-07-18T06:35:24.247Z,101054.75
2023-07-18T06:36:48.233Z,101058.00
2023-07-18T06:38:10.392Z,101055.41
2023-07-18T06:39:33.380Z,101046.47
2023-07-18T06:40:56.493Z,101054.63
2023-07-18T06:42:20.898Z,101048.94
2023-07-18T06:43:42.995Z,101052.66
2023-07-18T06:45:07.330Z,101051.47
2023-07-18T06:46:29.330Z,101048.72
2023-07-18T06:47:52.379Z,101054.13
2023-07-18T06:49:14.578Z,101045.69
2023-07-18T06:50:37.907Z,101052.69
2023-07-18T06:52:00.040Z,101048.28
2023-07-18T06:53:23.417Z,101057.22
2023-07-18T06:54:45.415Z,101058.66
2023-07-18T06:56:08.365Z,101047.28
2023-07-18T06:57:31.733Z,101047.97
2023-07-18T06:58:54.757Z,101049.88
2023-07-18T07:00:17.853Z,101050.84
2023-07-18T07:01:41.051Z,101051.47
2023-07-18T07:03:03.586Z,101050.66
2023-07-18T07:04:26.641Z,101052.22
2023-07-18T07:05:48.673Z,101050.78
2023-07-18T07:07:12.140Z,101053.88
2023-07-18T07:08:34.257Z,101043.88
2023-07-18T07:09:57.307Z,101040.44
2023-07-18T07:11:19.470Z,101041.03
2023-07-18T07:12:44.130Z,101038.59
2023-07-18T07:14:06.231Z,101037.25
2023-07-18T07:15:29.235Z,101036.94
2023-07-18T07:16:51.365Z,101042.38
2023-07-18T07:18:14.947Z,101040.28
2023-07-18T07:19:37.130Z,101033.41
2023-07-18T07:21:00.652Z,101039.56
2023-07-18T07:22:22.754Z,101038.69
2023-07-18T07:23:45.694Z,101036.72
2023-07-18T07:25:08.560Z,101032.25
2023-07-18T07:26:31.662Z,101034.78
2023-07-18T07:27:55.450Z,101035.44
2023-07-18T07:29:19.582Z,101029.25
2023-07-18T07:30:41.700Z,101026.91
2023-07-18T07:32:05.099Z,101021.28
2023-07-18T07:33:27.287Z,101028.47
2023-07-18T07:34:50.268Z,101024.47
2023-07-18T07:36:12.349Z,101024.63
2023-07-18T07:37:35.578Z,101018.44
2023-07-18T07:38:57.527Z,101024.44
2023-07-18T07:40:21.068Z,101023.47
2023-07-18T07:41:44.025Z,101017.31
2023-07-18T07:43:07.379Z,101017.56
2023-07-18T07:44:30.367Z,101007.44
2023-07-18T07:45:52.649Z,101016.44
2023-07-18T07:47:15.569Z,101009.75
2023-07-18T07:48:37.739Z,101014.16
2023-07-18T07:50:01.974Z,101012.81
2023-07-18T07:51:24.195Z,101002.66
2023-07-18T07:52:47.545Z,100998.84
2023-07-18T07:54:09.595Z,101000.00
2023-07-18T07:55:33.087Z,100997.56
2023-07-18T07:56:55.106Z,100987.72
2023-07-18T07:58:19.664Z,100984.06
2023-07-18T07:59:42.089Z,100985.34
2023-07-18T08:01:05.238Z,100983.81
2023-07-18T08:02:29.589Z,100980.19
2023-07-18T08:03:52.662Z,100981.25
2023-07-18T08:05:14.765Z,100984.69
2023-07-18T08:06:37.927Z,100976.69
2023-07-18T08:08:00.903Z,100976.16
2023-07-18T08:10:46.136Z,100980.44
2023-07-18T08:12:09.412Z,100971.06
2023-07-18T08:13:34.015Z,100967.56
2023-07-18T08:14:56.018Z,100972.53
2023-07-18T08:16:19.060Z,100976.56
2023-07-18T08:17:41.163Z,100967.97
2023-07-18T08:19:04.316Z,100963.84
2023-07-18T08:20:26.682Z,100969.56
2023-07-18T08:21:49.677Z,100973.72
2023-07-18T08:23:12.717Z,100973.44
2023-07-18T08:24:34.796Z,100968.03
2023-07-18T08:25:57.974Z,100971.44
2023-07-18T08:27:19.929Z,100961.16
2023-07-18T08:28:44.304Z,100967.03
2023-07-18T08:30:07.572Z,100964.97
2023-07-18T08:31:31.544Z,100969.94
2023-07-18T08:32:55.440Z,100963.94
2023-07-18T08:34:25.996Z,100958.78
2023-07-18T08:35:50.035Z,100956.94
2023-07-18T08:37:14.216Z,100952.78
2023-07-18T08:38:36.305Z,100954.78
2023-07-18T08:39:59.886Z,100942.56
2023-07-18T08:41:22.886Z,100955.88
2023-07-18T08:42:46.895Z,100952.28
2023-07-18T08:44:10.747Z,100947.44
2023-07-18T08:45:38.612Z,100947.19
2023-07-18T08:47:03.856Z,100944.53
2023-07-18T08:48:26.843Z,100941.56
2023-07-18T08:49:49.329Z,100938.81
2023-07-18T08:51:13.057Z,100948.44
2023-07-18T08:52:35.146Z,100943.16
2023-07-18T08:53:58.468Z,100944.78
2023-07-18T08:55:22.715Z,100946.34
2023-07-18T08:56:46.042Z,100936.44
2023-07-18T08:58:08.545Z,100928.81
2023-07-18T08:59:33.281Z,100932.44
2023-07-18T09:00:55.439Z,100939.16
2023-07-18T09:02:18.412Z,100930.34
2023-07-18T09:03:41.135Z,100936.41
2023-07-18T09:05:04.323Z,100932.47
2023-07-18T09:06:26.386Z,100928.13
2023-07-18T09:07:49.410Z,100924.31
2023-07-18T09:09:16.995Z,100919.88
2023-07-18T09:10:40.231Z,100925.50
2023-07-18T09:12:05.579Z,100917.50
2023-07-18T09:13:29.129Z,100913.38
2023-07-18T09:14:56.880Z,100916.25
2023-07-18T09:16:22.113Z,100910.56
2023-07-18T09:17:49.257Z,100899.91
2023-07-18T09:19:12.617Z,100911.72
2023-07-18T09:20:35.053Z,100909.38
2023-07-18T09:22:00.670Z,100913.53
2023-07-18T09:23:22.827Z,100905.09
2023-07-18T09:24:49.126Z,100902.81
2023-07-18T09:26:13.961Z,100906.75
2023-07-18T09:27:38.131Z,100904.88
2023-07-18T09:29:00.779Z,100899.63
2023-07-18T09:30:29.627Z,100902.63
2023-07-18T09:31:51.798Z,100907.81
2023-07-18T09:33:14.993Z,100903.72
2023-07-18T09:34:37.061Z,100897.44
2023-07-18T09:36:00.196Z,100900.69
2023-07-18T09:37:22.453Z,100901.66
2023-07-18T09:38:46.683Z,100903.28
2023-07-18T09:40:11.433Z,100887.88
2023-07-18T09:41:35.397Z,100884.91
2023-07-18T09:43:01.527Z,100881.09
2023-07-18T09:44:33.159Z,100884.50
2023-07-18T09:45:57.896Z,100879.34
2023-07-18T09:47:21.832Z,100880.44
2023-07-18T09:48:46.533Z,100878.81
2023-07-18T09:50:11.233Z,100877.03
2023-07-18T09:51:34.377Z,100878.47
2023-07-18T09:53:00.241Z,100883.66
2023-07-18T09:54:22.904Z,100885.28
2023-07-18T09:55:47.091Z,100881.78
2023-07-18T09:57:11.299Z,100878.19
2023-07-18T09:58:40.364Z,100866.72
2023-07-18T10:00:06.855Z,100875.78
2023-07-18T10:01:31.958Z,100867.69
2023-07-18T10:02:57.773Z,100875.31
2023-07-18T10:04:20.153Z,100863.56
2023-07-18T10:05:44.108Z,100862.91
2023-07-18T10:07:09.957Z,100862.44
2023-07-18T10:08:33.668Z,100869.56
2023-07-18T10:09:55.997Z,100869.84
2023-07-18T10:11:19.383Z,100854.94
2023-07-18T10:12:59.817Z,100853.09
2023-07-18T10:14:22.753Z,100857.31
2023-07-18T10:16:20.049Z,100848.38
2023-07-18T10:17:44.492Z,100858.38
2023-07-18T10:19:17.126Z,100849.66
2023-07-18T10:20:40.780Z,100830.47
2023-07-18T10:22:03.331Z,100832.25
2023-07-18T10:23:41.957Z,100824.47
2023-07-18T10:25:08.257Z,100829.16
2023-07-18T10:26:32.449Z,100815.88
2023-07-18T10:27:55.559Z,100832.59
2023-07-18T10:29:18.147Z,100826.31
2023-07-18T10:30:43.770Z,100818.63
2023-07-18T10:32:10.104Z,100812.06
2023-07-18T10:33:34.463Z,100813.59
2023-07-18T10:34:56.467Z,100803.47
2023-07-18T10:36:26.299Z,100807.81
2023-07-18T10:37:54.423Z,100800.59
2023-07-18T10:39:16.486Z,100807.78
2023-07-18T10:40:44.686Z,100806.34
2023-07-18T10:42:08.882Z,100811.56
2023-07-18T10:43:33.541Z,100792.66
2023-07-18T10:44:56.921Z,100798.19
2023-07-18T10:46:21.130Z,100795.13
2023-07-18T10:47:43.333Z,100790.81
2023-07-18T10:49:08.056Z,100782.25
2023-07-18T10:50:30.173Z,100780.16
2023-07-18T10:51:56.052Z,100777.34
2023-07-18T10:53:19.967Z,100770.94
2023-07-18T10:54:45.349Z,100772.94
2023-07-18T10:56:08.305Z,100771.28
2023-07-18T10:57:33.685Z,100761.69
2023-07-18T10:58:56.720Z,100760.53
2023-07-18T11:00:21.278Z,100767.06
2023-07-18T11:01:43.717Z,100772.31
2023-07-18T11:03:06.753Z,100762.84
2023-07-18T11:04:30.210Z,100765.88
2023-07-18T11:05:54.713Z,100763.69
2023-07-18T11:07:16.806Z,100755.28
2023-07-18T11:08:39.785Z,100747.59
2023-07-18T11:10:02.278Z,100752.88
2023-07-18T11:11:25.340Z,100754.84
2023-07-18T11:12:47.536Z,100761.69
2023-07-18T11:14:10.477Z,100762.41
2023-07-18T11:15:32.614Z,100759.53
2023-07-18T11:16:56.501Z,100771.94
2023-07-18T11:18:19.092Z,100773.72
2023-07-18T11:19:43.725Z,100776.91
2023-07-18T11:21:07.179Z,100775.31
2023-07-18T11:22:30.825Z,100771.72
2023-07-18T11:23:53.924Z,100766.84
2023-07-18T11:25:17.055Z,100772.19
2023-07-18T11:26:39.348Z,100771.78
2023-07-18T11:28:05.556Z,100760.94
2023-07-18T11:29:27.682Z,100763.69
2023-07-18T11:30:52.255Z,100753.44
2023-07-18T11:32:14.284Z,100752.84
2023-07-18T11:33:37.313Z,100746.72
2023-07-18T11:35:01.257Z,100740.28
2023-07-18T11:36:25.090Z,100757.63
2023-07-18T11:37:49.314Z,100757.47
2023-07-18T11:39:21.533Z,100753.97
2023-07-18T11:40:44.350Z,100745.22
2023-07-18T11:42:09.710Z,100757.66
2023-07-18T11:43:31.707Z,100749.66
2023-07-18T11:44:54.904Z,100751.63
2023-07-18T11:46:16.964Z,100742.41
2023-07-18T11:47:44.959Z,100732.63
2023-07-18T11:49:07.588Z,100727.97
2023-07-18T11:50:32.344Z,100727.06
2023-07-18T11:51:54.339Z,100721.75
2023-07-18T11:53:26.105Z,100717.84
2023-07-18T11:54:48.343Z,100729.16
2023-07-18T11:56:11.297Z,100727.13
2023-07-18T11:57:33.236Z,100726.59
2023-07-18T11:58:57.675Z,100723.94
2023-07-18T12:00:20.672Z,100722.75
2023-07-18T12:01:44.476Z,100725.09
2023-07-18T12:03:06.671Z,100727.88
2023-07-18T12:04:29.632Z,100717.53
2023-07-18T12:05:53.889Z,100701.03
2023-07-18T12:07:15.807Z,100711.38
2023-07-18T12:08:38.764Z,100709.75
2023-07-18T12:10:01.082Z,100706.72
2023-07-18T12:11:24.608Z,100705.84
2023-07-18T12:12:47.847Z,100704.31
2023-07-18T12:14:10.201Z,100714.91
2023-07-18T12:15:34.715Z,100711.84
2023-07-18T12:16:58.860Z,100703.44
2023-07-18T12:18:21.868Z,100699.75
2023-07-18T12:19:45.347Z,100689.44
2023-07-18T12:21:09.536Z,100690.63
2023-07-18T12:22:31.850Z,100693.47
2023-07-18T12:23:54.843Z,100691.00
2023-07-18T12:25:17.298Z,100700.69
2023-07-18T12:26:40.195Z,100695.78
2023-07-18T12:28:03.585Z,100699.06
2023-07-18T12:29:26.523Z,100703.88
2023-07-18T12:30:48.667Z,100705.84
2023-07-18T12:32:12.148Z,100710.25
2023-07-18T12:33:34.433Z,100702.22
2023-07-18T12:34:57.467Z,100698.59
2023-07-18T12:36:21.317Z,100705.44
2023-07-18T12:37:44.457Z,100696.25
2023-07-18T12:39:07.175Z,100695.38
2023-07-18T12:40:30.158Z,100697.84
2023-07-18T12:41:52.138Z,100693.47
2023-07-18T12:43:15.076Z,100690.25
2023-07-18T12:44:38.929Z,100697.47
2023-07-18T12:46:02.501Z,100685.03
2023-07-18T12:47:24.503Z,100687.06
2023-07-18T12:50:13.984Z,100667.78
2023-07-18T12:51:37.410Z,100673.34
2023-07-18T12:53:00.689Z,100673.41
2023-07-18T12:54:22.659Z,100677.41
2023-07-18T12:55:46.598Z,100680.63
2023-07-18T12:57:08.702Z,100683.81
2023-07-18T12:58:31.603Z,100681.41
2023-07-18T12:59:54.036Z,100676.16
2023-07-18T13:01:17.492Z,100687.03
2023-07-18T13:02:39.654Z,100683.03
2023-07-18T13:04:04.686Z,100687.84
2023-07-18T13:05:27.728Z,100682.22
2023-07-18T13:06:51.369Z,100684.66
2023-07-18T13:08:14.393Z,100678.63
2023-07-18T13:09:37.827Z,100666.16
2023-07-18T13:11:00.854Z,100664.50
2023-07-18T13:12:22.882Z,100654.13
2023-07-18T13:13:47.450Z,100657.75
2023-07-18T13:15:09.876Z,100649.34
2023-07-18T13:16:32.828Z,100651.75
2023-07-18T13:17:55.070Z,100651.75
2023-07-18T13:19:18.268Z,100639.31
2023-07-18T13:20:41.942Z,100629.69
2023-07-18T13:22:06.899Z,100624.84
2023-07-18T13:23:28.846Z,100626.88
2023-07-18T13:24:51.803Z,100620.44
2023-07-18T13:26:16.638Z,100607.59
2023-07-18T13:27:42.319Z,100601.56
2023-07-18T13:29:04.844Z,100600.31
2023-07-18T13:30:27.885Z,100603.06
2023-07-18T13:31:49.869Z,100608.13
2023-07-18T13:33:12.837Z,100608.06
2023-07-18T13:34:36.434Z,100606.94
2023-07-18T13:35:59.226Z,100599.00
2023-07-18T13:37:23.756Z,100594.97
2023-07-18T13:38:45.770Z,100587.25
2023-07-18T13:40:10.023Z,100585.25
2023-07-18T13:41:32.977Z,100589.69
2023-07-18T13:42:56.079Z,100597.09
2023-07-18T13:44:19.021Z,100590.75
2023-07-18T13:45:42.038Z,100592.34
2023-07-18T13:47:04.650Z,100580.31
2023-07-18T13:48:27.668Z,100572.72
2023-07-18T13:49:50.523Z,100591.53
2023-07-18T13:51:14.056Z,100586.75
2023-07-18T13:52:38.397Z,100588.75
2023-07-18T13:54:00.407Z,100583.06
2023-07-18T13:55:23.334Z,100586.59
2023-07-18T13:56:45.315Z,100592.16
2023-07-18T13:58:08.465Z,100584.28
2023-07-18T13:59:30.484Z,100576.59
2023-07-18T14:00:53.674Z,100590.56
2023-07-18T14:02:15.785Z,100581.22
2023-07-18T14:03:38.786Z,100580.16
2023-07-18T14:05:00.856Z,100577.75
2023-07-18T14:06:23.823Z,100578.03
2023-07-18T14:07:47.137Z,100563.16
2023-07-18T14:09:10.046Z,100571.84
2023-07-18T14:10:32.083Z,100569.75
2023-07-18T14:11:56.103Z,100576.94
2023-07-18T14:13:19.354Z,100564.28
2023-07-18T14:14:42.365Z,100556.72
2023-07-18T14:16:05.342Z,100546.28
2023-07-18T14:17:29.966Z,100553.91
2023-07-18T14:18:52.606Z,100549.50
2023-07-18T14:20:15.963Z,100541.78
2023-07-18T14:21:38.265Z,100539.25
2023-07-18T14:23:03.868Z,100534.47
2023-07-18T14:24:25.872Z,100532.44
2023-07-18T14:25:49.405Z,100520.03
2023-07-18T14:27:13.462Z,100532.41
2023-07-18T14:28:36.448Z,100524.72
2023-07-18T14:29:58.431Z,100528.19
2023-07-18T14:31:21.448Z,100524.22
2023-07-18T14:32:43.477Z,100530.03
2023-07-18T14:34:07.553Z,100528.66
2023-07-18T14:35:29.876Z,100534.72
2023-07-18T14:36:52.865Z,100531.78
2023-07-18T14:38:16.246Z,100522.72
2023-07-18T14:39:40.623Z,100520.69
2023-07-18T14:41:02.739Z,100515.91
2023-07-18T14:42:25.675Z,100507.94
2023-07-18T14:43:47.903Z,100505.19
2023-07-18T14:45:11.764Z,100503.88
2023-07-18T14:46:33.889Z,100507.66
2023-07-18T14:47:56.941Z,100499.41
2023-07-18T14:49:19.825Z,100502.59
2023-07-18T14:50:43.243Z,100503.25
2023-07-18T14:52:06.302Z,100500.16
2023-07-18T14:53:30.578Z,100512.25
2023-07-18T14:54:57.476Z,100499.41
2023-07-18T14:56:20.766Z,100510.00
2023-07-18T14:57:43.224Z,100499.66
2023-07-18T14:59:06.620Z,100500.75
2023-07-18T15:00:28.791Z,100512.22
2023-07-18T15:01:52.085Z,100503.84
2023-07-18T15:03:14.248Z,100497.66
2023-07-18T15:04:37.380Z,100506.06
2023-07-18T15:05:59.605Z,100504.34
2023-07-18T15:07:22.676Z,100506.91
2023-07-18T15:08:46.456Z,100498.31
2023-07-18T15:10:10.142Z,100502.44
2023-07-18T15:11:32.100Z,100501.31
2023-07-18T15:12:55.179Z,100498.06
2023-07-18T15:14:17.773Z,100506.81
2023-07-18T15:15:41.350Z,100508.56
2023-07-18T15:17:03.708Z,100497.91
2023-07-18T15:18:26.705Z,100500.34
2023-07-18T15:19:50.705Z,100502.59
2023-07-18T15:21:14.438Z,100497.53
2023-07-18T15:22:37.034Z,100502.31
2023-07-18T15:24:01.768Z,100492.66
2023-07-18T15:25:24.143Z,100499.09
2023-07-18T15:26:47.088Z,100488.66
2023-07-18T15:28:14.358Z,100495.53
2023-07-18T15:29:36.309Z,100486.25
2023-07-18T15:31:01.139Z,100491.09
2023-07-18T15:32:23.177Z,100487.03
2023-07-18T15:33:46.177Z,100487.41
2023-07-18T15:35:08.614Z,100494.16
2023-07-18T15:36:31.580Z,100488.44
2023-07-18T15:37:53.549Z,100475.25
2023-07-18T15:39:17.837Z,100483.16
2023-07-18T15:40:40.455Z,100475.09
2023-07-18T15:42:03.430Z,100482.25
2023-07-18T15:43:25.467Z,100476.53
2023-07-18T15:44:49.238Z,100471.47
2023-07-18T15:46:11.262Z,100468.69
2023-07-18T15:47:34.348Z,100470.34
2023-07-18T15:48:56.303Z,100465.25
2023-07-18T15:50:20.434Z,100461.06
2023-07-18T15:51:43.789Z,100454.13
2023-07-18T15:53:06.899Z,100461.78
2023-07-18T15:54:30.262Z,100459.56